createdAt,value
2018-01-31T01:53:15.485Z,99381.78
2018-01-31T01:55:44.806Z,99372.69
2018-01-31T01:58:13.085Z,99358.95
2018-01-31T02:00:41.379Z,99354.63
2018-01-31T02:03:09.673Z,99350.53
2018-01-31T02:05:38.005Z,99349.31
2018-01-31T02:08:06.281Z,99348.84
2018-01-31T02:10:34.557Z,99347.05
2018-01-31T02:13:02.857Z,99347.86
2018-01-31T02:15:31.117Z,99340.20
2018-01-31T02:17:59.409Z,99339.80
2018-01-31T02:20:27.674Z,99328.63
2018-01-31T02:22:55.972Z,99325.26
2018-01-31T02:25:24.247Z,99313.38
2018-01-31T02:27:52.545Z,99312.76
2018-01-31T02:30:20.806Z,99305.95
2018-01-31T02:32:49.106Z,99306.21
2018-01-31T02:35:17.399Z,99296.17
2018-01-31T02:37:45.730Z,99293.36
2018-01-31T02:40:16.834Z,99298.34
2018-01-31T02:42:45.098Z,99293.62
2018-01-31T02:45:13.430Z,99275.67
2018-01-31T02:47:41.710Z,99284.56
2018-01-31T02:50:09.988Z,99275.84
2018-01-31T02:52:38.254Z,99271.64
2018-01-31T02:55:06.535Z,99263.14
2018-01-31T02:57:34.818Z,99260.47
2018-01-31T03:00:03.119Z,99250.80
2018-01-31T03:02:31.393Z,99246.88
2018-01-31T03:04:59.682Z,99253.22
2018-01-31T03:07:27.974Z,99247.20
2018-01-31T03:09:56.243Z,99241.75
2018-01-31T03:12:24.530Z,99251.31
2018-01-31T03:14:52.788Z,99240.50
2018-01-31T03:17:21.134Z,99230.69
2018-01-31T03:19:49.406Z,99230.87
2018-01-31T03:22:17.722Z,99217.91
2018-01-31T03:24:45.995Z,99214.88
2018-01-31T03:27:14.296Z,99210.77
2018-01-31T03:29:42.554Z,99214.56
2018-01-31T03:32:10.853Z,99212.95
2018-01-31T03:34:39.167Z,99205.56
2018-01-31T03:37:07.439Z,99206.14
2018-01-31T03:39:35.729Z,99196.48
2018-01-31T03:42:04.659Z,99192.63
2018-01-31T03:44:32.951Z,99193.42
2018-01-31T03:47:01.217Z,99190.48
2018-01-31T03:49:29.535Z,99196.59
2018-01-31T03:51:57.849Z,99180.16
2018-01-31T03:54:26.125Z,99188.67
2018-01-31T03:56:54.402Z,99177.78
2018-01-31T03:59:22.681Z,99166.66
2018-01-31T04:01:50.974Z,99162.65
2018-01-31T04:04:19.230Z,99165.11
2018-01-31T04:06:47.518Z,99156.59
2018-01-31T04:09:15.778Z,99151.48
2018-01-31T04:11:44.064Z,99153.84
2018-01-31T04:14:12.333Z,99148.05
2018-01-31T04:16:40.659Z,99143.45
2018-01-31T04:19:08.951Z,99132.95
2018-01-31T04:21:37.226Z,99130.03
2018-01-31T04:24:05.517Z,99136.73
2018-01-31T04:26:33.793Z,99114.02
2018-01-31T04:29:02.095Z,99123.90
2018-01-31T04:31:30.384Z,99114.53
2018-01-31T04:33:58.667Z,99125.33
2018-01-31T04:36:26.946Z,99122.03
2018-01-31T04:38:55.343Z,99118.20
2018-01-31T04:41:23.640Z,99126.80
2018-01-31T04:43:51.926Z,99135.13
2018-01-31T04:46:20.217Z,99118.02
2018-01-31T04:48:48.492Z,99108.85
2018-01-31T04:51:17.094Z,99107.11
2018-01-31T04:53:45.368Z,99100.40
2018-01-31T04:56:13.661Z,99097.77
2018-01-31T04:58:41.911Z,99091.41
2018-01-31T05:01:10.203Z,99090.17
2018-01-31T05:03:39.364Z,99085.16
2018-01-31T05:06:07.654Z,99084.90
2018-01-31T05:08:36.034Z,99071.95
2018-01-31T05:11:04.932Z,99065.24
2018-01-31T05:13:33.248Z,99057.48
2018-01-31T05:16:01.508Z,99067.22
2018-01-31T05:18:29.795Z,99066.73
2018-01-31T05:20:58.366Z,99053.88
2018-01-31T05:23:26.662Z,99045.55
2018-01-31T05:25:54.914Z,99041.11
2018-01-31T05:28:23.196Z,99047.33
2018-01-31T05:30:51.463Z,99041.83
2018-01-31T05:33:19.746Z,99038.42
2018-01-31T05:35:48.035Z,99042.12
2018-01-31T05:38:16.316Z,99040.17
2018-01-31T05:40:44.700Z,99040.63
2018-01-31T05:43:12.967Z,99045.73
2018-01-31T05:45:41.262Z,99036.64
2018-01-31T05:48:09.553Z,99032.72
2018-01-31T05:50:37.834Z,99030.83
2018-01-31T05:53:06.115Z,99024.69
2018-01-31T05:55:35.279Z,99019.72
2018-01-31T05:58:03.569Z,99032.55
2018-01-31T06:00:31.860Z,99021.44
2018-01-31T06:03:00.140Z,99013.72
2018-01-31T06:05:28.426Z,99008.64
2018-01-31T06:07:56.690Z,99003.83
2018-01-31T06:10:24.990Z,99018.47
2018-01-31T06:12:53.275Z,99005.44
2018-01-31T06:15:21.578Z,99005.60
2018-01-31T06:17:49.870Z,99002.66
2018-01-31T06:20:18.180Z,98976.05
2018-01-31T06:22:46.531Z,98996.16
2018-01-31T06:25:14.952Z,98996.19
2018-01-31T06:27:43.255Z,98992.77
2018-01-31T06:30:11.502Z,98996.45
2018-01-31T06:32:40.184Z,98990.30
2018-01-31T06:35:08.446Z,99002.50
2018-01-31T06:37:36.819Z,99003.81
2018-01-31T06:40:05.127Z,98993.27
2018-01-31T06:42:34.288Z,98994.22
2018-01-31T06:45:02.616Z,98988.86
2018-01-31T06:47:30.884Z,98986.34
2018-01-31T06:49:59.260Z,98980.64
2018-01-31T06:52:27.540Z,98979.48
2018-01-31T06:54:55.828Z,98980.86
2018-01-31T06:57:24.507Z,98955.45
2018-01-31T06:59:52.771Z,98974.59
2018-01-31T07:02:21.039Z,98962.75
2018-01-31T07:04:49.335Z,98965.86
2018-01-31T07:07:17.801Z,98972.84
2018-01-31T07:09:46.070Z,98969.14
2018-01-31T07:12:14.370Z,98969.28
2018-01-31T07:14:42.653Z,98964.90
2018-01-31T07:17:10.901Z,98968.64
2018-01-31T07:19:39.249Z,98961.32
2018-01-31T07:22:07.533Z,98953.13
2018-01-31T07:24:35.897Z,98935.73
2018-01-31T07:27:04.500Z,98946.66
2018-01-31T07:29:33.725Z,98949.70
2018-01-31T07:32:05.025Z,98939.16
2018-01-31T07:34:33.438Z,98938.23
2018-01-31T07:37:01.728Z,98936.26
2018-01-31T07:39:30.019Z,98932.02
2018-01-31T07:41:58.370Z,98933.36
2018-01-31T07:44:26.669Z,98929.62
2018-01-31T07:46:54.980Z,98938.78
2018-01-31T07:49:23.301Z,98913.09
2018-01-31T07:51:51.584Z,98921.98
2018-01-31T07:54:19.932Z,98913.16
2018-01-31T07:56:48.383Z,98905.69
2018-01-31T07:59:16.696Z,98878.77
2018-01-31T08:01:44.960Z,98891.70
2018-01-31T08:04:13.265Z,98887.81
2018-01-31T08:06:43.613Z,98884.16
2018-01-31T08:09:12.140Z,98883.52
2018-01-31T08:11:40.443Z,98865.19
2018-01-31T08:14:08.804Z,98874.09
2018-01-31T08:16:37.079Z,98866.80
2018-01-31T08:19:06.223Z,98864.44
2018-01-31T08:21:34.558Z,98867.03
2018-01-31T08:24:02.824Z,98860.22
2018-01-31T08:26:31.953Z,98860.92
2018-01-31T08:29:00.306Z,98853.25
2018-01-31T08:31:28.613Z,98861.25
2018-01-31T08:33:57.028Z,98863.88
2018-01-31T08:36:25.387Z,98867.17
2018-01-31T08:38:53.639Z,98868.41
2018-01-31T08:41:21.931Z,98867.75
2018-01-31T08:43:50.196Z,98858.25
2018-01-31T08:46:18.673Z,98848.38
2018-01-31T08:48:46.954Z,98861.67
2018-01-31T08:51:15.229Z,98848.80
2018-01-31T08:53:43.548Z,98851.44
2018-01-31T08:56:11.924Z,98851.73
2018-01-31T08:58:40.413Z,98846.97
2018-01-31T09:01:08.872Z,98842.26
2018-01-31T09:03:37.196Z,98836.45
2018-01-31T09:06:05.475Z,98852.55
2018-01-31T09:08:33.776Z,98827.38
2018-01-31T09:11:02.060Z,98831.35
2018-01-31T09:13:30.359Z,98820.23
2018-01-31T09:15:58.653Z,98816.27
2018-01-31T09:18:27.899Z,98815.86
2018-01-31T09:20:56.200Z,98812.86
2018-01-31T09:23:25.371Z,98804.66
2018-01-31T09:25:53.673Z,98798.51
2018-01-31T09:28:22.644Z,98801.79
2018-01-31T09:30:50.926Z,98795.39
2018-01-31T09:33:19.306Z,98809.84
2018-01-31T09:35:47.590Z,98798.47
2018-01-31T09:38:15.889Z,98784.24
2018-01-31T09:40:45.675Z,98776.20
2018-01-31T09:43:13.957Z,98760.64
2018-01-31T09:45:42.363Z,98784.91
2018-01-31T09:48:10.714Z,98781.98
2018-01-31T09:50:39.541Z,98780.95
2018-01-31T09:53:07.872Z,98765.23
2018-01-31T09:55:36.147Z,98774.72
2018-01-31T09:58:04.888Z,98759.67
2018-01-31T10:00:33.214Z,98739.98
2018-01-31T10:03:02.305Z,98745.63
2018-01-31T10:05:30.594Z,98741.42
2018-01-31T10:07:58.920Z,98739.71
2018-01-31T10:10:27.227Z,98713.76
2018-01-31T10:12:55.525Z,98711.91
2018-01-31T10:15:23.871Z,98722.73
2018-01-31T10:17:52.166Z,98716.80
2018-01-31T10:20:20.456Z,98701.66
2018-01-31T10:22:48.763Z,98693.78
2018-01-31T10:25:17.088Z,98606.66
2018-01-31T10:27:45.362Z,98685.79
2018-01-31T10:30:14.459Z,98661.53
2018-01-31T10:32:42.788Z,98673.00
2018-01-31T10:35:11.131Z,98668.54
2018-01-31T10:37:39.419Z,98662.22
2018-01-31T10:40:07.689Z,98650.75
2018-01-31T10:42:36.249Z,98644.03
2018-01-31T10:45:05.086Z,98625.31
2018-01-31T10:47:33.445Z,98641.38
2018-01-31T10:50:01.721Z,98630.84
2018-01-31T10:52:30.042Z,98614.77
2018-01-31T10:57:28.576Z,98604.07
2018-01-31T10:57:29.193Z,98605.39
2018-01-31T10:59:54.926Z,98608.70
2018-01-31T11:02:23.205Z,98609.23
2018-01-31T11:04:51.546Z,98591.70
2018-01-31T11:07:19.827Z,98599.73
2018-01-31T11:09:48.135Z,98590.09
2018-01-31T11:12:16.460Z,98554.91
2018-01-31T11:14:44.834Z,98556.75
2018-01-31T11:17:13.115Z,98545.13
2018-01-31T11:19:41.406Z,98532.34
2018-01-31T11:22:09.830Z,98536.83
2018-01-31T11:24:38.072Z,98518.61
2018-01-31T11:27:06.372Z,98508.98
2018-01-31T11:29:34.728Z,98494.91
2018-01-31T11:32:03.027Z,98483.80
2018-01-31T11:34:31.370Z,98500.70
2018-01-31T11:36:59.762Z,98510.97
2018-01-31T11:39:28.783Z,98487.51
2018-01-31T11:41:57.198Z,98494.50
2018-01-31T11:44:25.940Z,98489.23
2018-01-31T11:46:54.314Z,98511.00
2018-01-31T11:49:23.675Z,98479.35
2018-01-31T11:51:52.074Z,98484.59
2018-01-31T11:54:20.454Z,98481.04
2018-01-31T11:56:48.805Z,98469.84
2018-01-31T11:59:17.106Z,98476.72
2018-01-31T12:01:46.142Z,98462.86
2018-01-31T12:04:14.496Z,98457.86
2018-01-31T12:06:42.756Z,98440.72
2018-01-31T12:12:10.285Z,98438.60
2018-01-31T12:14:50.198Z,98439.27
2018-01-31T12:17:18.484Z,98435.69
2018-01-31T12:20:13.149Z,98416.30
2018-01-31T12:22:53.082Z,98413.44
2018-01-31T12:25:33.259Z,98418.18
2018-01-31T12:28:13.391Z,98393.66
2018-01-31T12:30:48.544Z,98395.25
2018-01-31T12:33:28.574Z,98387.11
2018-01-31T12:36:08.950Z,98383.75
2018-01-31T12:38:48.986Z,98369.73
2018-01-31T12:41:16.756Z,98368.36
2018-01-31T12:43:44.583Z,98374.96
2018-01-31T12:46:24.610Z,98354.95
2018-01-31T12:52:13.572Z,98360.22
2018-01-31T12:54:53.780Z,98340.50
2018-01-31T12:57:30.922Z,98339.83
2018-01-31T13:00:11.159Z,98335.74
2018-01-31T13:05:52.350Z,98312.42
2018-01-31T13:08:32.551Z,98326.24
2018-01-31T13:14:14.541Z,98305.34
2018-01-31T13:16:54.641Z,98289.81
2018-01-31T13:19:34.728Z,98283.47
2018-01-31T13:25:27.723Z,98259.23
2018-01-31T13:28:13.613Z,98254.07
2018-01-31T13:30:49.478Z,98258.08
2018-01-31T13:33:29.598Z,98240.80
2018-01-31T13:36:09.661Z,98240.66
2018-01-31T13:38:49.604Z,98251.97
2018-01-31T13:41:29.671Z,98238.16
2018-01-31T13:44:06.652Z,98240.03
2018-01-31T13:46:46.695Z,98227.38
2018-01-31T13:52:29.638Z,98213.41
2018-01-31T13:55:09.548Z,98201.03
2018-01-31T13:57:49.782Z,98199.38
2018-01-31T14:00:29.891Z,98197.73
2018-01-31T14:03:10.051Z,98188.10
2018-01-31T14:05:50.305Z,98176.93
2018-01-31T14:08:30.320Z,98179.81
2018-01-31T14:11:10.574Z,98159.58
2018-01-31T14:13:50.566Z,98147.28
2018-01-31T14:16:30.729Z,98155.52
2018-01-31T14:19:10.696Z,98140.27
2018-01-31T14:21:50.653Z,98135.52
2018-01-31T14:24:30.575Z,98124.69
2018-01-31T14:27:10.843Z,98131.03
2018-01-31T14:29:50.754Z,98126.67
2018-01-31T14:35:33.411Z,98106.23
2018-01-31T14:38:01.284Z,98097.13
2018-01-31T14:40:28.996Z,98095.27
2018-01-31T14:42:56.783Z,98076.81
2018-01-31T14:45:24.648Z,98066.41
2018-01-31T14:47:52.407Z,98066.92
2018-01-31T14:50:20.200Z,98076.59
2018-01-31T14:52:48.001Z,98065.27
2018-01-31T14:55:15.731Z,98067.73
2018-01-31T14:57:43.488Z,98048.28
2018-01-31T15:00:11.319Z,98038.83
2018-01-31T15:02:39.123Z,98055.73
2018-01-31T15:05:07.522Z,98067.52
2018-01-31T15:07:35.290Z,98059.20
2018-01-31T15:10:04.159Z,98059.23
2018-01-31T15:12:31.929Z,98057.70
2018-01-31T15:15:00.684Z,98061.94
2018-01-31T15:17:28.420Z,98057.71
2018-01-31T15:19:56.231Z,98060.23
2018-01-31T15:22:24.005Z,98043.01
2018-01-31T15:24:51.740Z,98046.34
2018-01-31T15:27:19.490Z,98037.20
2018-01-31T15:29:47.391Z,98044.70
2018-01-31T15:32:15.476Z,98027.86
2018-01-31T15:34:43.242Z,98008.70
2018-01-31T15:37:11.001Z,98015.05
2018-01-31T15:39:38.799Z,98019.16
2018-01-31T15:42:06.570Z,98000.66
2018-01-31T15:44:34.988Z,98006.60
2018-01-31T15:47:03.806Z,97993.86
2018-01-31T15:49:31.591Z,97994.36
2018-01-31T15:51:59.438Z,97987.77
2018-01-31T15:54:27.190Z,97988.59
2018-01-31T15:56:54.971Z,97992.00
2018-01-31T15:59:22.942Z,97977.16
2018-01-31T16:01:50.657Z,97969.27
2018-01-31T16:04:18.526Z,97981.09
2018-01-31T16:06:46.318Z,97978.19
2018-01-31T16:09:14.086Z,97966.74
2018-01-31T16:11:41.953Z,97973.20
2018-01-31T16:14:09.669Z,97973.37
2018-01-31T16:16:37.979Z,97959.84
2018-01-31T16:22:05.146Z,97969.31
2018-01-31T16:24:34.446Z,97961.03
2018-01-31T16:27:02.898Z,97951.89
2018-01-31T16:29:46.903Z,97958.59
2018-01-31T16:32:26.919Z,97954.13
2018-01-31T16:34:55.275Z,97951.51
2018-01-31T16:37:23.671Z,97942.87
2018-01-31T16:39:52.137Z,97944.31
2018-01-31T16:42:20.590Z,97954.19
2018-01-31T16:44:48.991Z,97951.80
2018-01-31T16:47:17.384Z,97932.64
2018-01-31T16:49:46.348Z,97938.13
2018-01-31T16:52:14.801Z,97933.25
2018-01-31T16:54:43.096Z,97935.73
2018-01-31T16:57:11.400Z,97922.63
2018-01-31T16:59:39.817Z,97917.88
2018-01-31T17:02:08.199Z,97908.38
2018-01-31T17:04:36.532Z,97909.14
2018-01-31T17:07:04.952Z,97874.86
2018-01-31T17:09:33.482Z,97896.94
2018-01-31T17:12:01.796Z,97900.05
2018-01-31T17:14:30.167Z,97891.53
2018-01-31T17:16:58.482Z,97883.23
2018-01-31T17:19:26.774Z,97888.09
2018-01-31T17:21:56.304Z,97873.89
2018-01-31T17:24:24.617Z,97872.93
2018-01-31T17:26:53.012Z,97872.68
2018-01-31T17:29:21.347Z,97872.58
2018-01-31T17:31:51.341Z,97858.25
2018-01-31T17:34:19.662Z,97867.45
2018-01-31T17:36:48.005Z,97860.48
2018-01-31T17:39:16.278Z,97860.07
2018-01-31T17:41:45.435Z,97863.37
2018-01-31T17:44:13.731Z,97855.60
2018-01-31T17:46:42.863Z,97846.52
2018-01-31T17:49:11.180Z,97835.66
2018-01-31T17:51:39.512Z,97845.27
2018-01-31T17:54:08.358Z,97840.03
2018-01-31T17:56:36.742Z,97837.58
2018-01-31T17:59:05.149Z,97836.37
2018-01-31T18:01:33.546Z,97828.72
2018-01-31T18:04:02.682Z,97835.05
2018-01-31T18:06:31.093Z,97831.11
2018-01-31T18:08:59.499Z,97819.55
2018-01-31T18:11:27.750Z,97820.22
2018-01-31T18:13:56.048Z,97811.02
2018-01-31T18:16:24.324Z,97803.78
2018-01-31T18:18:52.625Z,97802.91
2018-01-31T18:21:21.747Z,97790.89
2018-01-31T18:23:50.097Z,97798.89
2018-01-31T18:26:19.186Z,97756.59
2018-01-31T18:28:47.470Z,97792.99
2018-01-31T18:31:15.923Z,97794.43
2018-01-31T18:33:44.234Z,97784.57
2018-01-31T18:36:12.523Z,97789.17
2018-01-31T18:38:40.808Z,97784.06
2018-01-31T18:41:09.811Z,97779.32
2018-01-31T18:43:38.091Z,97769.73
2018-01-31T18:46:06.419Z,97769.70
2018-01-31T18:48:34.672Z,97763.85
2018-01-31T18:51:03.002Z,97773.89
2018-01-31T18:53:31.283Z,97770.50
2018-01-31T18:55:59.576Z,97755.36
2018-01-31T18:58:27.884Z,97749.60
2018-01-31T19:00:56.205Z,97747.47
2018-01-31T19:03:24.511Z,97753.27
2018-01-31T19:05:54.022Z,97747.55
2018-01-31T19:08:22.686Z,97734.63
2018-01-31T19:10:51.025Z,97737.70
2018-01-31T19:13:19.379Z,97736.33
2018-01-31T19:15:47.676Z,97734.53
2018-01-31T19:18:15.993Z,97731.27
2018-01-31T19:20:45.777Z,97728.06
2018-01-31T19:23:14.986Z,97734.66
2018-01-31T19:25:43.318Z,97715.75
2018-01-31T19:28:11.633Z,97720.08
2018-01-31T19:30:39.968Z,97712.40
2018-01-31T19:33:08.304Z,97708.54
2018-01-31T19:35:36.570Z,97713.01
2018-01-31T19:38:05.388Z,97710.89
2018-01-31T19:40:33.692Z,97711.00
2018-01-31T19:43:02.017Z,97711.27
2018-01-31T19:45:30.312Z,97711.05
2018-01-31T19:47:58.586Z,97711.86
2018-01-31T19:50:26.872Z,97713.20
2018-01-31T19:52:55.431Z,97707.64
2018-01-31T19:55:23.762Z,97686.34
2018-01-31T19:57:52.023Z,97712.19
2018-01-31T20:00:20.362Z,97697.22
2018-01-31T20:02:49.023Z,97709.84
2018-01-31T20:05:17.426Z,97703.36
2018-01-31T20:07:45.750Z,97708.24
2018-01-31T20:10:14.262Z,97716.33
2018-01-31T20:12:42.612Z,97708.17
2018-01-31T20:15:11.046Z,97716.13
2018-01-31T20:17:39.351Z,97720.89
2018-01-31T20:20:07.654Z,97715.67
2018-01-31T20:22:35.963Z,97714.23
2018-01-31T20:25:04.598Z,97719.89
2018-01-31T20:27:33.126Z,97721.64
2018-01-31T20:30:01.425Z,97731.59
2018-01-31T20:32:29.784Z,97723.91
2018-01-31T20:34:59.041Z,97725.76
2018-01-31T20:37:27.368Z,97717.78
2018-01-31T20:39:55.790Z,97639.41
2018-01-31T20:42:24.040Z,97714.83
2018-01-31T20:44:52.339Z,97711.17
2018-01-31T20:47:20.591Z,97715.63
2018-01-31T20:49:48.945Z,97718.84
2018-01-31T20:52:17.236Z,97712.95
2018-01-31T20:54:45.559Z,97708.63
2018-01-31T20:57:13.829Z,97711.89
2018-01-31T20:59:42.174Z,97706.56
2018-01-31T21:02:10.486Z,97706.13
2018-01-31T21:04:38.810Z,97710.05
2018-01-31T21:07:07.129Z,97696.38
2018-01-31T21:09:35.444Z,97702.58
2018-01-31T21:12:03.757Z,97708.24
2018-01-31T21:14:32.028Z,97701.63
2018-01-31T21:17:00.343Z,97697.30
2018-01-31T21:19:28.673Z,97702.45
2018-01-31T21:21:56.999Z,97700.89
2018-01-31T21:24:25.283Z,97700.32
2018-01-31T21:26:53.580Z,97701.92
2018-01-31T21:29:21.877Z,97692.23
2018-01-31T21:31:50.203Z,97699.59
2018-01-31T21:34:18.480Z,97693.59
2018-01-31T21:36:48.319Z,97683.66
2018-01-31T21:39:16.606Z,97688.18
2018-01-31T21:41:44.907Z,97680.92
2018-01-31T21:44:13.208Z,97677.09
2018-01-31T21:46:41.492Z,97682.22
2018-01-31T21:49:09.778Z,97678.69
2018-01-31T21:51:38.078Z,97681.32
2018-01-31T21:54:06.374Z,97663.31
2018-01-31T21:56:34.653Z,97665.66
2018-01-31T21:59:02.981Z,97653.95
2018-01-31T22:01:31.223Z,97645.05
2018-01-31T22:03:59.476Z,97648.25
2018-01-31T22:06:27.779Z,97645.70
2018-01-31T22:08:56.067Z,97640.42
2018-01-31T22:11:24.434Z,97644.70
2018-01-31T22:13:52.737Z,97638.42
2018-01-31T22:16:21.022Z,97644.55
2018-01-31T22:18:49.293Z,97638.28
2018-01-31T22:21:17.610Z,97638.75
2018-01-31T22:23:45.897Z,97645.59
2018-01-31T22:26:14.194Z,97637.13
2018-01-31T22:28:43.013Z,97639.52
2018-01-31T22:31:11.298Z,97647.13
2018-01-31T22:33:39.602Z,97605.77
2018-01-31T22:36:07.885Z,97635.57
2018-01-31T22:38:36.181Z,97634.05
2018-01-31T22:41:04.775Z,97568.80
2018-01-31T22:43:33.125Z,97628.81
2018-01-31T22:46:01.699Z,97616.98
2018-01-31T22:48:29.978Z,97614.50
2018-01-31T22:50:58.578Z,97613.19
2018-01-31T22:53:26.844Z,97619.80
2018-01-31T22:55:55.606Z,97625.00
2018-01-31T22:58:25.147Z,97630.73
2018-01-31T23:00:53.424Z,97634.84
2018-01-31T23:03:21.732Z,97634.92
2018-01-31T23:05:49.988Z,97628.91
2018-01-31T23:08:18.329Z,97630.95
2018-01-31T23:10:46.640Z,97620.77
2018-01-31T23:13:18.560Z,97624.02
2018-01-31T23:15:46.847Z,97625.70
2018-01-31T23:18:19.001Z,97625.27
2018-01-31T23:20:48.088Z,97627.47
2018-01-31T23:23:16.392Z,97632.10
2018-01-31T23:25:44.677Z,97643.33
2018-01-31T23:28:12.979Z,97644.14
2018-01-31T23:30:41.260Z,97642.94
2018-01-31T23:33:09.843Z,97632.73
2018-01-31T23:35:38.088Z,97651.49
2018-01-31T23:38:06.370Z,97651.49
2018-01-31T23:40:34.683Z,97653.48
2018-01-31T23:43:02.939Z,97648.07
2018-01-31T23:45:31.193Z,97638.66
2018-01-31T23:47:59.456Z,97639.01
2018-01-31T23:50:27.734Z,97639.41
2018-01-31T23:52:56.015Z,97644.42
2018-01-31T23:55:24.363Z,97648.11
2018-01-31T23:57:52.582Z,97635.67
